A4OAJ OEJN-HAAB
Flight info
| Callsign | A4OAJ |
|---|---|
| Flight time | 2h 4m |
| Altitude | 35000 |
| Route | RIBAM G650 RASKA/N0459F360 UG650 KONET/N0455F370 DCT EKBOB/N0455F360 UT114 MEKEL MEKEL1A |
| Aircraft | A319/M-SDE3FGHIRWY/LB1 |
Departure
| Time | 2026-04-27 19:36 |
|---|---|
| Airport | King Abdulaziz International Airport (OEJN) |
Arrival
| Time | 2026-04-27 21:40 |
|---|---|
| Airport | Addis Ababa Bole International Airport (HAAB) |
| Time | Latitude | Longitude | Altitude | Speed | Heading |
|---|---|---|---|---|---|
| 2026-04-27 19:06 | 21.69342 | 39.13566 | 54 ft | 0 kts | 70° |
| 2026-04-27 19:21 | 21.69340 | 39.13564 | 54 ft | 1 kts | 70° |
| 2026-04-27 19:21 | 21.69336 | 39.13549 | 54 ft | 2 kts | 70° |
| 2026-04-27 19:22 | 21.69331 | 39.13535 | 54 ft | 1 kts | 94° |
| 2026-04-27 19:22 | 21.69338 | 39.13522 | 54 ft | 1 kts | 147° |
| 2026-04-27 19:22 | 21.69344 | 39.13518 | 54 ft | 1 kts | 166° |
| 2026-04-27 19:22 | 21.69348 | 39.13518 | 54 ft | 0 kts | 160° |
| 2026-04-27 19:25 | 21.69320 | 39.13528 | 54 ft | 8 kts | 160° |
| 2026-04-27 19:25 | 21.69243 | 39.13540 | 54 ft | 13 kts | 214° |
| 2026-04-27 19:25 | 21.69192 | 39.13457 | 54 ft | 13 kts | 213° |
| 2026-04-27 19:25 | 21.69096 | 39.13464 | 54 ft | 15 kts | 161° |
| 2026-04-27 19:26 | 21.68982 | 39.13509 | 54 ft | 18 kts | 160° |
| 2026-04-27 19:26 | 21.68856 | 39.13557 | 54 ft | 19 kts | 160° |
| 2026-04-27 19:26 | 21.68733 | 39.13605 | 54 ft | 19 kts | 160° |
| 2026-04-27 19:26 | 21.68607 | 39.13657 | 54 ft | 19 kts | 160° |
| 2026-04-27 19:27 | 21.68483 | 39.13705 | 54 ft | 19 kts | 159° |
| 2026-04-27 19:27 | 21.68362 | 39.13755 | 54 ft | 17 kts | 161° |
| 2026-04-27 19:27 | 21.68257 | 39.13806 | 54 ft | 15 kts | 124° |
| 2026-04-27 19:27 | 21.68276 | 39.13921 | 54 ft | 16 kts | 70° |
| 2026-04-27 19:28 | 21.68315 | 39.14033 | 54 ft | 16 kts | 69° |
| 2026-04-27 19:28 | 21.68352 | 39.14148 | 54 ft | 16 kts | 70° |
| 2026-04-27 19:28 | 21.68398 | 39.14279 | 54 ft | 24 kts | 70° |
| 2026-04-27 19:28 | 21.68461 | 39.14456 | 54 ft | 24 kts | 70° |
| 2026-04-27 19:29 | 21.68519 | 39.14625 | 54 ft | 23 kts | 70° |
| 2026-04-27 19:29 | 21.68576 | 39.14788 | 54 ft | 22 kts | 70° |
| 2026-04-27 19:29 | 21.68630 | 39.14946 | 54 ft | 22 kts | 71° |
| 2026-04-27 19:29 | 21.68681 | 39.15097 | 54 ft | 21 kts | 69° |
| 2026-04-27 19:30 | 21.68712 | 39.15223 | 54 ft | 16 kts | 106° |
| 2026-04-27 19:30 | 21.68619 | 39.15291 | 54 ft | 16 kts | 159° |
| 2026-04-27 19:30 | 21.68506 | 39.15332 | 54 ft | 17 kts | 162° |
| 2026-04-27 19:30 | 21.68381 | 39.15380 | 54 ft | 22 kts | 158° |
| 2026-04-27 19:31 | 21.68212 | 39.15450 | 54 ft | 26 kts | 159° |
| 2026-04-27 19:31 | 21.68040 | 39.15519 | 54 ft | 25 kts | 156° |
| 2026-04-27 19:31 | 21.67873 | 39.15580 | 54 ft | 24 kts | 160° |
| 2026-04-27 19:31 | 21.67717 | 39.15644 | 54 ft | 23 kts | 160° |
| 2026-04-27 19:32 | 21.67565 | 39.15707 | 54 ft | 22 kts | 163° |
| 2026-04-27 19:32 | 21.67415 | 39.15763 | 54 ft | 22 kts | 159° |
| 2026-04-27 19:32 | 21.67258 | 39.15825 | 54 ft | 25 kts | 159° |
| 2026-04-27 19:32 | 21.67091 | 39.15892 | 54 ft | 25 kts | 159° |
| 2026-04-27 19:33 | 21.66930 | 39.15956 | 54 ft | 24 kts | 160° |
| 2026-04-27 19:33 | 21.66823 | 39.15989 | 54 ft | 23 kts | 171° |
| 2026-04-27 19:33 | 21.66629 | 39.16076 | 54 ft | 22 kts | 159° |
| 2026-04-27 19:33 | 21.66484 | 39.16132 | 54 ft | 21 kts | 159° |
| 2026-04-27 19:34 | 21.66343 | 39.16187 | 54 ft | 21 kts | 161° |
| 2026-04-27 19:34 | 21.66212 | 39.16240 | 54 ft | 13 kts | 155° |
| 2026-04-27 19:34 | 21.66193 | 39.16324 | 54 ft | 13 kts | 71° |
| 2026-04-27 19:34 | 21.66231 | 39.16416 | 54 ft | 13 kts | 43° |
| 2026-04-27 19:35 | 21.66347 | 39.16402 | 54 ft | 24 kts | 342° |
| 2026-04-27 19:35 | 21.66692 | 39.16266 | 55 ft | 84 kts | 338° |
| 2026-04-27 19:35 | 21.67427 | 39.15975 | 55 ft | 139 kts | 339° |
| 2026-04-27 19:35 | 21.68424 | 39.15582 | 363 ft | 155 kts | 340° |
| 2026-04-27 19:36 | 21.69456 | 39.15174 | 898 ft | 158 kts | 341° |
| 2026-04-27 19:36 | 21.70483 | 39.14775 | 1509 ft | 158 kts | 341° |
| 2026-04-27 19:36 | 21.71526 | 39.14368 | 2032 ft | 163 kts | 341° |
| 2026-04-27 19:36 | 21.72647 | 39.13933 | 2314 ft | 177 kts | 341° |
| 2026-04-27 19:37 | 21.73863 | 39.13456 | 2604 ft | 192 kts | 340° |
| 2026-04-27 19:37 | 21.75217 | 39.12923 | 2848 ft | 214 kts | 340° |
| 2026-04-27 19:37 | 21.76676 | 39.12342 | 3206 ft | 231 kts | 338° |
| 2026-04-27 19:37 | 21.78038 | 39.11291 | 3555 ft | 252 kts | 310° |
| 2026-04-27 19:38 | 21.78806 | 39.09570 | 4141 ft | 264 kts | 282° |
| 2026-04-27 19:38 | 21.78696 | 39.07601 | 4844 ft | 272 kts | 252° |
| 2026-04-27 19:38 | 21.77661 | 39.05923 | 5570 ft | 276 kts | 221° |
| 2026-04-27 19:38 | 21.75940 | 39.05033 | 6363 ft | 279 kts | 190° |
| 2026-04-27 19:39 | 21.74019 | 39.05019 | 7167 ft | 279 kts | 179° |
| 2026-04-27 19:39 | 21.72068 | 39.05129 | 7869 ft | 283 kts | 179° |
| 2026-04-27 19:39 | 21.70099 | 39.05229 | 8580 ft | 286 kts | 179° |
| 2026-04-27 19:39 | 21.68093 | 39.05328 | 9323 ft | 287 kts | 179° |
| 2026-04-27 19:40 | 21.66106 | 39.05423 | 10009 ft | 289 kts | 180° |
| 2026-04-27 19:40 | 21.64064 | 39.05519 | 10544 ft | 298 kts | 180° |
| 2026-04-27 19:40 | 21.61941 | 39.05616 | 10822 ft | 314 kts | 180° |
| 2026-04-27 19:40 | 21.59680 | 39.05716 | 11108 ft | 330 kts | 179° |
| 2026-04-27 19:41 | 21.57350 | 39.05823 | 11636 ft | 337 kts | 180° |
| 2026-04-27 19:41 | 21.55009 | 39.05932 | 12266 ft | 340 kts | 180° |
| 2026-04-27 19:41 | 21.52636 | 39.06045 | 12920 ft | 341 kts | 180° |
| 2026-04-27 19:41 | 21.50230 | 39.06158 | 13570 ft | 343 kts | 181° |
| 2026-04-27 19:42 | 21.47849 | 39.06270 | 14141 ft | 346 kts | 181° |
| 2026-04-27 19:42 | 21.45445 | 39.06379 | 14703 ft | 349 kts | 181° |
| 2026-04-27 19:42 | 21.42996 | 39.06491 | 15249 ft | 352 kts | 181° |
| 2026-04-27 19:42 | 21.40514 | 39.06606 | 15794 ft | 355 kts | 182° |
| 2026-04-27 19:43 | 21.38038 | 39.06721 | 16330 ft | 357 kts | 182° |
| 2026-04-27 19:43 | 21.35531 | 39.06834 | 16836 ft | 359 kts | 183° |
| 2026-04-27 19:43 | 21.33033 | 39.06949 | 17365 ft | 361 kts | 183° |
| 2026-04-27 19:43 | 21.30500 | 39.07064 | 17887 ft | 363 kts | 183° |
| 2026-04-27 19:44 | 21.27994 | 39.07177 | 18381 ft | 365 kts | 184° |
| 2026-04-27 19:44 | 21.25449 | 39.07291 | 18861 ft | 367 kts | 184° |
| 2026-04-27 19:44 | 21.22882 | 39.07407 | 19365 ft | 368 kts | 184° |
| 2026-04-27 19:44 | 21.20294 | 39.07524 | 19875 ft | 369 kts | 184° |
| 2026-04-27 19:45 | 21.17743 | 39.07640 | 20284 ft | 372 kts | 184° |
| 2026-04-27 19:45 | 21.15123 | 39.07758 | 20692 ft | 376 kts | 184° |
| 2026-04-27 19:45 | 21.12514 | 39.07875 | 21165 ft | 377 kts | 184° |
| 2026-04-27 19:45 | 21.09867 | 39.07997 | 21626 ft | 378 kts | 184° |
| 2026-04-27 19:46 | 21.07257 | 39.08118 | 22044 ft | 380 kts | 184° |
| 2026-04-27 19:46 | 21.04589 | 39.08238 | 22459 ft | 381 kts | 184° |
| 2026-04-27 19:46 | 21.01938 | 39.08359 | 22819 ft | 384 kts | 184° |
| 2026-04-27 19:46 | 20.99255 | 39.08479 | 23145 ft | 387 kts | 185° |
| 2026-04-27 19:47 | 20.96550 | 39.08601 | 23442 ft | 391 kts | 185° |
| 2026-04-27 19:47 | 20.93834 | 39.08725 | 23735 ft | 394 kts | 184° |
| 2026-04-27 19:47 | 20.91071 | 39.08850 | 24007 ft | 398 kts | 185° |
| 2026-04-27 19:47 | 20.88296 | 39.08975 | 24289 ft | 401 kts | 184° |
| 2026-04-27 19:48 | 20.85475 | 39.09105 | 24585 ft | 403 kts | 184° |
| 2026-04-27 19:48 | 20.82680 | 39.09233 | 24863 ft | 406 kts | 184° |
| 2026-04-27 19:48 | 20.79842 | 39.09363 | 25109 ft | 410 kts | 184° |
| 2026-04-27 19:48 | 20.76941 | 39.09495 | 25362 ft | 413 kts | 184° |
| 2026-04-27 19:49 | 20.74084 | 39.09625 | 25630 ft | 415 kts | 184° |
| 2026-04-27 19:49 | 20.71170 | 39.09735 | 25880 ft | 417 kts | 186° |
| 2026-04-27 19:49 | 20.68264 | 39.09708 | 26152 ft | 417 kts | 188° |
| 2026-04-27 19:49 | 20.65378 | 39.09637 | 26424 ft | 418 kts | 188° |
| 2026-04-27 19:50 | 20.62449 | 39.09562 | 26650 ft | 422 kts | 188° |
| 2026-04-27 19:50 | 20.59494 | 39.09485 | 26887 ft | 424 kts | 188° |
| 2026-04-27 19:50 | 20.56510 | 39.09408 | 27113 ft | 427 kts | 188° |
| 2026-04-27 19:50 | 20.53556 | 39.09333 | 27334 ft | 429 kts | 188° |
| 2026-04-27 19:51 | 20.50545 | 39.09257 | 27564 ft | 432 kts | 188° |
| 2026-04-27 19:51 | 20.47515 | 39.09181 | 27780 ft | 434 kts | 188° |
| 2026-04-27 19:51 | 20.44496 | 39.09105 | 27961 ft | 437 kts | 188° |
| 2026-04-27 19:51 | 20.41423 | 39.09027 | 28156 ft | 440 kts | 188° |
| 2026-04-27 19:52 | 20.38360 | 39.08949 | 28347 ft | 442 kts | 188° |
| 2026-04-27 19:52 | 20.36320 | 39.08898 | 28479 ft | 444 kts | 188° |
| 2026-04-27 19:52 | 20.32181 | 39.08794 | 28797 ft | 446 kts | 188° |
| 2026-04-27 19:52 | 20.29035 | 39.08714 | 29054 ft | 447 kts | 187° |
| 2026-04-27 19:53 | 20.22805 | 39.08556 | 29515 ft | 450 kts | 187° |
| 2026-04-27 19:53 | 20.19681 | 39.08479 | 29859 ft | 449 kts | 187° |
| 2026-04-27 19:53 | 20.16536 | 39.08400 | 30180 ft | 447 kts | 187° |
| 2026-04-27 19:54 | 20.13430 | 39.08322 | 30477 ft | 447 kts | 187° |
| 2026-04-27 19:54 | 20.10324 | 39.08245 | 30756 ft | 447 kts | 187° |
| 2026-04-27 19:54 | 20.07192 | 39.08167 | 31037 ft | 447 kts | 187° |
| 2026-04-27 19:54 | 20.04084 | 39.08089 | 31319 ft | 446 kts | 187° |
| 2026-04-27 19:55 | 20.01006 | 39.08012 | 31602 ft | 445 kts | 187° |
| 2026-04-27 19:55 | 19.97912 | 39.07934 | 31858 ft | 445 kts | 187° |
| 2026-04-27 19:55 | 19.94794 | 39.07855 | 32130 ft | 445 kts | 186° |
| 2026-04-27 19:55 | 19.91702 | 39.07779 | 32416 ft | 445 kts | 187° |
| 2026-04-27 19:56 | 19.88574 | 39.07701 | 32746 ft | 444 kts | 186° |
| 2026-04-27 19:56 | 19.85479 | 39.07625 | 33106 ft | 443 kts | 186° |
| 2026-04-27 19:56 | 19.82398 | 39.07550 | 33431 ft | 443 kts | 186° |
| 2026-04-27 19:56 | 19.79310 | 39.07475 | 33702 ft | 443 kts | 186° |
| 2026-04-27 19:57 | 19.73119 | 39.07320 | 33810 ft | 445 kts | 186° |
| 2026-04-27 19:57 | 19.66930 | 39.07166 | 33822 ft | 445 kts | 186° |
| 2026-04-27 19:58 | 19.60712 | 39.07012 | 33812 ft | 446 kts | 186° |
| 2026-04-27 19:58 | 19.54494 | 39.06858 | 33812 ft | 446 kts | 186° |
| 2026-04-27 19:59 | 19.48281 | 39.06703 | 33814 ft | 445 kts | 186° |
| 2026-04-27 19:59 | 19.42068 | 39.06549 | 33822 ft | 445 kts | 186° |
| 2026-04-27 20:00 | 19.35872 | 39.06395 | 33818 ft | 446 kts | 186° |
| 2026-04-27 20:00 | 19.29637 | 39.06240 | 33824 ft | 446 kts | 186° |
| 2026-04-27 20:01 | 19.23455 | 39.06089 | 33817 ft | 446 kts | 186° |
| 2026-04-27 20:01 | 19.17222 | 39.05935 | 33824 ft | 447 kts | 186° |
| 2026-04-27 20:02 | 19.10982 | 39.05761 | 33823 ft | 447 kts | 187° |
| 2026-04-27 20:02 | 19.04795 | 39.05416 | 33824 ft | 446 kts | 187° |
| 2026-04-27 20:03 | 18.98574 | 39.05050 | 33816 ft | 446 kts | 187° |
| 2026-04-27 20:03 | 18.92390 | 39.04698 | 33822 ft | 446 kts | 187° |
| 2026-04-27 20:04 | 18.86134 | 39.04349 | 33817 ft | 447 kts | 187° |
| 2026-04-27 20:04 | 18.80977 | 39.04063 | 33819 ft | 447 kts | 187° |
| 2026-04-27 20:05 | 18.73700 | 39.03661 | 33818 ft | 447 kts | 187° |
| 2026-04-27 20:05 | 18.67495 | 39.03316 | 33816 ft | 447 kts | 187° |
| 2026-04-27 20:06 | 18.61262 | 39.02970 | 33817 ft | 447 kts | 187° |
| 2026-04-27 20:06 | 18.55058 | 39.02627 | 33811 ft | 448 kts | 187° |
| 2026-04-27 20:07 | 18.48792 | 39.02279 | 33811 ft | 448 kts | 187° |
| 2026-04-27 20:07 | 18.42577 | 39.01936 | 33806 ft | 447 kts | 187° |
| 2026-04-27 20:08 | 18.36333 | 39.01591 | 33807 ft | 448 kts | 187° |
| 2026-04-27 20:08 | 18.30103 | 39.01248 | 33804 ft | 448 kts | 187° |
| 2026-04-27 20:09 | 18.23863 | 39.00903 | 33804 ft | 449 kts | 187° |
| 2026-04-27 20:09 | 18.17600 | 39.00557 | 33807 ft | 449 kts | 187° |
| 2026-04-27 20:10 | 18.11354 | 39.00292 | 33802 ft | 450 kts | 185° |
| 2026-04-27 20:10 | 18.05108 | 39.00079 | 33805 ft | 449 kts | 185° |
| 2026-04-27 20:11 | 17.98824 | 38.99858 | 33799 ft | 449 kts | 185° |
| 2026-04-27 20:11 | 17.92551 | 38.99636 | 33801 ft | 450 kts | 185° |
| 2026-04-27 20:12 | 17.87315 | 38.99449 | 33798 ft | 450 kts | 185° |
| 2026-04-27 20:12 | 17.80012 | 38.99188 | 33795 ft | 450 kts | 185° |
| 2026-04-27 20:13 | 17.73755 | 38.98964 | 33792 ft | 450 kts | 185° |
| 2026-04-27 20:13 | 17.67481 | 38.98739 | 33793 ft | 449 kts | 185° |
| 2026-04-27 20:14 | 17.61232 | 38.98515 | 33795 ft | 450 kts | 185° |
| 2026-04-27 20:14 | 17.54960 | 38.98288 | 33799 ft | 450 kts | 185° |
| 2026-04-27 20:15 | 17.48674 | 38.98063 | 33802 ft | 450 kts | 185° |
| 2026-04-27 20:15 | 17.42418 | 38.97839 | 33807 ft | 450 kts | 185° |
| 2026-04-27 20:16 | 17.36141 | 38.97609 | 33809 ft | 449 kts | 185° |
| 2026-04-27 20:16 | 17.29896 | 38.97379 | 33804 ft | 449 kts | 185° |
| 2026-04-27 20:17 | 17.23642 | 38.97152 | 33807 ft | 449 kts | 185° |
| 2026-04-27 20:17 | 17.18398 | 38.96959 | 33806 ft | 449 kts | 185° |
| 2026-04-27 20:18 | 17.11128 | 38.96693 | 33807 ft | 450 kts | 185° |
| 2026-04-27 20:18 | 17.04844 | 38.96463 | 33805 ft | 450 kts | 184° |
| 2026-04-27 20:19 | 16.98574 | 38.96234 | 33808 ft | 450 kts | 184° |
| 2026-04-27 20:19 | 16.92287 | 38.96005 | 33816 ft | 449 kts | 184° |
| 2026-04-27 20:20 | 16.86025 | 38.95779 | 33817 ft | 449 kts | 184° |
| 2026-04-27 20:20 | 16.79774 | 38.95554 | 33819 ft | 449 kts | 184° |
| 2026-04-27 20:21 | 16.73499 | 38.95327 | 33825 ft | 449 kts | 184° |
| 2026-04-27 20:21 | 16.67247 | 38.95099 | 33834 ft | 450 kts | 184° |
| 2026-04-27 20:22 | 16.60972 | 38.94870 | 33836 ft | 450 kts | 184° |
| 2026-04-27 20:22 | 16.54699 | 38.94643 | 33837 ft | 449 kts | 184° |
| 2026-04-27 20:23 | 16.48476 | 38.94417 | 33839 ft | 449 kts | 184° |
| 2026-04-27 20:23 | 16.42205 | 38.94190 | 33848 ft | 449 kts | 184° |
| 2026-04-27 20:24 | 16.35934 | 38.93963 | 33844 ft | 449 kts | 184° |
| 2026-04-27 20:24 | 16.29686 | 38.93737 | 33855 ft | 449 kts | 184° |
| 2026-04-27 20:25 | 16.23441 | 38.93510 | 33853 ft | 449 kts | 184° |
| 2026-04-27 20:25 | 16.17149 | 38.93282 | 33868 ft | 450 kts | 184° |
| 2026-04-27 20:26 | 16.10860 | 38.93054 | 33873 ft | 450 kts | 184° |
| 2026-04-27 20:26 | 16.04611 | 38.92828 | 33890 ft | 450 kts | 184° |
| 2026-04-27 20:27 | 15.98344 | 38.92603 | 33905 ft | 450 kts | 184° |
| 2026-04-27 20:27 | 15.92068 | 38.92376 | 33919 ft | 450 kts | 184° |
| 2026-04-27 20:28 | 15.85766 | 38.92151 | 33920 ft | 450 kts | 184° |
| 2026-04-27 20:28 | 15.80551 | 38.91964 | 33939 ft | 450 kts | 184° |
| 2026-04-27 20:29 | 15.73229 | 38.91700 | 33957 ft | 450 kts | 184° |
| 2026-04-27 20:29 | 15.66969 | 38.91474 | 34015 ft | 450 kts | 184° |
| 2026-04-27 20:30 | 15.60691 | 38.91248 | 34056 ft | 450 kts | 184° |
| 2026-04-27 20:30 | 15.54410 | 38.91023 | 34114 ft | 450 kts | 183° |
| 2026-04-27 20:31 | 15.48132 | 38.90797 | 34150 ft | 450 kts | 183° |
| 2026-04-27 20:31 | 15.41883 | 38.90572 | 34182 ft | 450 kts | 183° |
| 2026-04-27 20:32 | 15.35579 | 38.90347 | 34209 ft | 451 kts | 183° |
| 2026-04-27 20:32 | 15.29302 | 38.90122 | 34224 ft | 451 kts | 183° |
| 2026-04-27 20:33 | 15.23044 | 38.90035 | 34245 ft | 451 kts | 181° |
| 2026-04-27 20:33 | 15.16739 | 38.90043 | 34252 ft | 451 kts | 181° |
| 2026-04-27 20:34 | 15.10447 | 38.90052 | 34258 ft | 451 kts | 181° |
| 2026-04-27 20:34 | 15.04175 | 38.90054 | 34271 ft | 451 kts | 181° |
| 2026-04-27 20:35 | 14.97850 | 38.90051 | 34274 ft | 451 kts | 181° |
| 2026-04-27 20:35 | 14.91566 | 38.90047 | 34272 ft | 451 kts | 181° |
| 2026-04-27 20:36 | 14.85263 | 38.90042 | 34267 ft | 451 kts | 181° |
| 2026-04-27 20:36 | 14.79002 | 38.90037 | 34264 ft | 451 kts | 181° |
| 2026-04-27 20:37 | 14.72704 | 38.90030 | 34256 ft | 452 kts | 181° |
| 2026-04-27 20:37 | 14.66390 | 38.90024 | 34249 ft | 452 kts | 181° |
| 2026-04-27 20:38 | 14.60068 | 38.90017 | 34247 ft | 452 kts | 181° |
| 2026-04-27 20:38 | 14.53797 | 38.90014 | 34239 ft | 453 kts | 181° |
| 2026-04-27 20:39 | 14.47461 | 38.90282 | 34242 ft | 454 kts | 175° |
| 2026-04-27 20:39 | 14.41181 | 38.90967 | 34259 ft | 454 kts | 174° |
| 2026-04-27 20:40 | 14.34898 | 38.91671 | 34272 ft | 454 kts | 174° |
| 2026-04-27 20:40 | 14.28569 | 38.92375 | 34281 ft | 454 kts | 174° |
| 2026-04-27 20:41 | 14.22303 | 38.93068 | 34297 ft | 454 kts | 174° |
| 2026-04-27 20:41 | 14.16000 | 38.93764 | 34304 ft | 454 kts | 174° |
| 2026-04-27 20:42 | 14.09667 | 38.94463 | 34298 ft | 454 kts | 174° |
| 2026-04-27 20:42 | 14.03418 | 38.95153 | 34293 ft | 455 kts | 174° |
| 2026-04-27 20:43 | 13.97070 | 38.95855 | 34281 ft | 455 kts | 174° |
| 2026-04-27 20:43 | 13.90769 | 38.96550 | 34275 ft | 455 kts | 174° |
| 2026-04-27 20:44 | 13.84460 | 38.97242 | 34278 ft | 455 kts | 174° |
| 2026-04-27 20:44 | 13.78120 | 38.97937 | 34274 ft | 455 kts | 174° |
| 2026-04-27 20:45 | 13.71853 | 38.98625 | 34273 ft | 455 kts | 174° |
| 2026-04-27 20:45 | 13.65540 | 38.99318 | 34268 ft | 455 kts | 174° |
| 2026-04-27 20:46 | 13.59215 | 39.00013 | 34251 ft | 455 kts | 174° |
| 2026-04-27 20:46 | 13.52929 | 39.00704 | 34241 ft | 455 kts | 174° |
| 2026-04-27 20:47 | 13.46596 | 39.01401 | 34232 ft | 455 kts | 174° |
| 2026-04-27 20:47 | 13.40311 | 39.02092 | 34232 ft | 455 kts | 174° |
| 2026-04-27 20:48 | 13.35029 | 39.02671 | 34233 ft | 455 kts | 174° |
| 2026-04-27 20:48 | 13.27697 | 39.03475 | 34235 ft | 455 kts | 174° |
| 2026-04-27 20:49 | 13.21408 | 39.04163 | 34235 ft | 454 kts | 174° |
| 2026-04-27 20:49 | 13.15093 | 39.04855 | 34224 ft | 454 kts | 173° |
| 2026-04-27 20:50 | 13.08804 | 39.05544 | 34210 ft | 454 kts | 173° |
| 2026-04-27 20:50 | 13.02498 | 39.06234 | 34194 ft | 453 kts | 173° |
| 2026-04-27 20:51 | 12.96226 | 39.06921 | 34188 ft | 454 kts | 173° |
| 2026-04-27 20:51 | 12.89944 | 39.07608 | 34198 ft | 454 kts | 173° |
| 2026-04-27 20:52 | 12.83629 | 39.08294 | 34219 ft | 452 kts | 173° |
| 2026-04-27 20:52 | 12.77368 | 39.08975 | 34236 ft | 452 kts | 173° |
| 2026-04-27 20:53 | 12.71121 | 39.09656 | 34258 ft | 452 kts | 173° |
| 2026-04-27 20:53 | 12.64822 | 39.10343 | 34270 ft | 452 kts | 173° |
| 2026-04-27 20:54 | 12.55433 | 39.11367 | 34304 ft | 451 kts | 173° |
| 2026-04-27 20:55 | 12.49182 | 39.12049 | 34307 ft | 451 kts | 173° |
| 2026-04-27 20:55 | 12.42921 | 39.12731 | 34320 ft | 450 kts | 173° |
| 2026-04-27 20:56 | 12.36727 | 39.13405 | 34336 ft | 449 kts | 173° |
| 2026-04-27 20:56 | 12.30481 | 39.14084 | 34364 ft | 449 kts | 173° |
| 2026-04-27 20:57 | 12.24234 | 39.14764 | 34390 ft | 449 kts | 173° |
| 2026-04-27 20:57 | 12.18037 | 39.15438 | 34407 ft | 449 kts | 173° |
| 2026-04-27 20:58 | 12.11779 | 39.16118 | 34416 ft | 449 kts | 173° |
| 2026-04-27 20:58 | 12.05587 | 39.16792 | 34418 ft | 448 kts | 173° |
| 2026-04-27 20:59 | 11.99368 | 39.17466 | 34424 ft | 448 kts | 173° |
| 2026-04-27 20:59 | 11.93146 | 39.18142 | 34430 ft | 448 kts | 173° |
| 2026-04-27 21:00 | 11.86956 | 39.18813 | 34420 ft | 447 kts | 173° |
| 2026-04-27 21:00 | 11.80751 | 39.19482 | 34415 ft | 447 kts | 173° |
| 2026-04-27 21:01 | 11.74527 | 39.20155 | 34451 ft | 447 kts | 173° |
| 2026-04-27 21:01 | 11.68342 | 39.20826 | 34461 ft | 446 kts | 173° |
| 2026-04-27 21:02 | 11.62166 | 39.21497 | 34444 ft | 447 kts | 173° |
| 2026-04-27 21:02 | 11.55977 | 39.22171 | 34427 ft | 446 kts | 173° |
| 2026-04-27 21:03 | 11.49806 | 39.22841 | 34408 ft | 445 kts | 173° |
| 2026-04-27 21:03 | 11.43613 | 39.23367 | 34444 ft | 445 kts | 177° |
| 2026-04-27 21:04 | 11.37393 | 39.23228 | 34461 ft | 445 kts | 184° |
| 2026-04-27 21:04 | 11.31240 | 39.22361 | 34494 ft | 446 kts | 190° |
| 2026-04-27 21:05 | 11.25156 | 39.21098 | 34528 ft | 445 kts | 191° |
| 2026-04-27 21:05 | 11.19079 | 39.19829 | 34541 ft | 445 kts | 191° |
| 2026-04-27 21:06 | 11.13021 | 39.18572 | 34551 ft | 445 kts | 191° |
| 2026-04-27 21:06 | 11.06903 | 39.17305 | 34561 ft | 445 kts | 191° |
| 2026-04-27 21:07 | 11.00819 | 39.16047 | 34591 ft | 445 kts | 191° |
| 2026-04-27 21:07 | 10.94773 | 39.14799 | 34584 ft | 445 kts | 191° |
| 2026-04-27 21:08 | 10.88676 | 39.13539 | 34554 ft | 445 kts | 191° |
| 2026-04-27 21:08 | 10.82555 | 39.12281 | 34537 ft | 446 kts | 191° |
| 2026-04-27 21:09 | 10.76510 | 39.10986 | 34521 ft | 446 kts | 193° |
| 2026-04-27 21:09 | 10.70560 | 39.09135 | 34505 ft | 447 kts | 199° |
| 2026-04-27 21:10 | 10.64701 | 39.06895 | 34483 ft | 447 kts | 200° |
| 2026-04-27 21:10 | 10.58906 | 39.04665 | 34446 ft | 446 kts | 200° |
| 2026-04-27 21:11 | 10.53100 | 39.02438 | 34434 ft | 446 kts | 200° |
| 2026-04-27 21:11 | 10.47292 | 39.00214 | 34376 ft | 446 kts | 200° |
| 2026-04-27 21:12 | 10.41446 | 38.97977 | 34352 ft | 446 kts | 200° |
| 2026-04-27 21:12 | 10.35633 | 38.95753 | 34334 ft | 446 kts | 200° |
| 2026-04-27 21:13 | 10.29794 | 38.93521 | 34319 ft | 446 kts | 200° |
| 2026-04-27 21:13 | 10.23985 | 38.91302 | 34309 ft | 446 kts | 200° |
| 2026-04-27 21:14 | 10.18221 | 38.89100 | 34025 ft | 438 kts | 200° |
| 2026-04-27 21:14 | 10.15362 | 38.88008 | 33738 ft | 435 kts | 200° |
| 2026-04-27 21:14 | 10.12541 | 38.86932 | 33452 ft | 435 kts | 200° |
| 2026-04-27 21:14 | 10.09696 | 38.85846 | 33164 ft | 435 kts | 200° |
| 2026-04-27 21:15 | 10.06841 | 38.84757 | 32840 ft | 435 kts | 200° |
| 2026-04-27 21:15 | 10.04001 | 38.83672 | 32448 ft | 436 kts | 200° |
| 2026-04-27 21:15 | 10.01174 | 38.82593 | 31964 ft | 437 kts | 200° |
| 2026-04-27 21:15 | 9.98329 | 38.81508 | 31388 ft | 438 kts | 200° |
| 2026-04-27 21:16 | 9.95460 | 38.80413 | 30767 ft | 438 kts | 200° |
| 2026-04-27 21:16 | 9.92604 | 38.79324 | 30119 ft | 439 kts | 200° |
| 2026-04-27 21:16 | 9.89749 | 38.78236 | 29462 ft | 439 kts | 200° |
| 2026-04-27 21:16 | 9.86871 | 38.77143 | 28797 ft | 440 kts | 199° |
| 2026-04-27 21:17 | 9.84010 | 38.76059 | 28229 ft | 438 kts | 199° |
| 2026-04-27 21:17 | 9.81142 | 38.74970 | 27789 ft | 433 kts | 199° |
| 2026-04-27 21:17 | 9.78340 | 38.73906 | 27352 ft | 428 kts | 199° |
| 2026-04-27 21:17 | 9.75569 | 38.72852 | 26919 ft | 424 kts | 199° |
| 2026-04-27 21:18 | 9.72832 | 38.71810 | 26480 ft | 419 kts | 199° |
| 2026-04-27 21:18 | 9.70092 | 38.70766 | 26021 ft | 416 kts | 199° |
| 2026-04-27 21:18 | 9.67374 | 38.69732 | 25561 ft | 413 kts | 199° |
| 2026-04-27 21:18 | 9.64695 | 38.68711 | 25100 ft | 410 kts | 199° |
| 2026-04-27 21:19 | 9.62045 | 38.67703 | 24636 ft | 407 kts | 199° |
| 2026-04-27 21:19 | 9.59403 | 38.66699 | 24171 ft | 405 kts | 199° |
| 2026-04-27 21:19 | 9.56785 | 38.65703 | 23704 ft | 403 kts | 199° |
| 2026-04-27 21:20 | 9.51546 | 38.63711 | 22800 ft | 399 kts | 199° |
| 2026-04-27 21:20 | 9.48922 | 38.62713 | 22345 ft | 398 kts | 199° |
| 2026-04-27 21:20 | 9.46334 | 38.61729 | 21923 ft | 396 kts | 199° |
| 2026-04-27 21:20 | 9.43766 | 38.60753 | 21497 ft | 395 kts | 199° |
| 2026-04-27 21:21 | 9.41207 | 38.59780 | 21057 ft | 394 kts | 199° |
| 2026-04-27 21:21 | 9.38619 | 38.58797 | 20618 ft | 393 kts | 199° |
| 2026-04-27 21:21 | 9.36058 | 38.57824 | 20182 ft | 393 kts | 199° |
| 2026-04-27 21:21 | 9.33519 | 38.56860 | 19748 ft | 392 kts | 199° |
| 2026-04-27 21:22 | 9.30941 | 38.55881 | 19310 ft | 392 kts | 199° |
| 2026-04-27 21:22 | 9.28406 | 38.54918 | 18882 ft | 391 kts | 199° |
| 2026-04-27 21:22 | 9.25838 | 38.53943 | 18446 ft | 391 kts | 199° |
| 2026-04-27 21:22 | 9.23291 | 38.52976 | 17999 ft | 390 kts | 200° |
| 2026-04-27 21:23 | 9.20766 | 38.52018 | 17549 ft | 389 kts | 199° |
| 2026-04-27 21:23 | 9.18202 | 38.51044 | 17097 ft | 388 kts | 200° |
| 2026-04-27 21:23 | 9.15690 | 38.50091 | 16653 ft | 387 kts | 200° |
| 2026-04-27 21:23 | 9.13177 | 38.49137 | 16201 ft | 386 kts | 200° |
| 2026-04-27 21:24 | 9.10652 | 38.48179 | 15744 ft | 384 kts | 200° |
| 2026-04-27 21:24 | 9.08150 | 38.47230 | 15299 ft | 382 kts | 200° |
| 2026-04-27 21:24 | 9.05670 | 38.46288 | 14865 ft | 380 kts | 200° |
| 2026-04-27 21:24 | 9.03224 | 38.45360 | 14725 ft | 360 kts | 200° |
| 2026-04-27 21:25 | 9.00967 | 38.44501 | 14647 ft | 338 kts | 200° |
| 2026-04-27 21:25 | 8.98828 | 38.43689 | 14578 ft | 316 kts | 200° |
| 2026-04-27 21:25 | 8.96812 | 38.42923 | 14520 ft | 296 kts | 200° |
| 2026-04-27 21:25 | 8.94939 | 38.42214 | 14476 ft | 285 kts | 199° |
| 2026-04-27 21:26 | 8.93066 | 38.41507 | 14434 ft | 284 kts | 198° |
| 2026-04-27 21:26 | 8.91138 | 38.41193 | 14403 ft | 277 kts | 168° |
| 2026-04-27 21:26 | 8.89419 | 38.41914 | 14402 ft | 261 kts | 136° |
| 2026-04-27 21:26 | 8.88314 | 38.43302 | 14110 ft | 255 kts | 109° |
| 2026-04-27 21:27 | 8.87954 | 38.45039 | 13780 ft | 251 kts | 91° |
| 2026-04-27 21:27 | 8.87870 | 38.46792 | 13424 ft | 250 kts | 90° |
| 2026-04-27 21:27 | 8.87785 | 38.48542 | 13080 ft | 247 kts | 91° |
| 2026-04-27 21:27 | 8.87690 | 38.50246 | 12752 ft | 242 kts | 91° |
| 2026-04-27 21:28 | 8.87586 | 38.51929 | 12425 ft | 237 kts | 91° |
| 2026-04-27 21:28 | 8.87478 | 38.53575 | 12113 ft | 232 kts | 92° |
| 2026-04-27 21:28 | 8.87371 | 38.55191 | 11815 ft | 230 kts | 92° |
| 2026-04-27 21:28 | 8.87264 | 38.56763 | 11614 ft | 222 kts | 92° |
| 2026-04-27 21:29 | 8.87160 | 38.58291 | 11263 ft | 210 kts | 92° |
| 2026-04-27 21:29 | 8.87099 | 38.59705 | 10978 ft | 196 kts | 84° |
| 2026-04-27 21:29 | 8.87467 | 38.60954 | 10792 ft | 173 kts | 61° |
| 2026-04-27 21:29 | 8.88186 | 38.61864 | 10738 ft | 161 kts | 42° |
| 2026-04-27 21:30 | 8.89070 | 38.62559 | 10717 ft | 159 kts | 38° |
| 2026-04-27 21:30 | 8.89965 | 38.63217 | 10686 ft | 159 kts | 37° |
| 2026-04-27 21:30 | 8.90863 | 38.63871 | 10616 ft | 159 kts | 37° |
| 2026-04-27 21:30 | 8.91759 | 38.64529 | 10520 ft | 158 kts | 37° |
| 2026-04-27 21:31 | 8.92579 | 38.65269 | 10409 ft | 157 kts | 51° |
| 2026-04-27 21:31 | 8.93192 | 38.66194 | 10286 ft | 158 kts | 59° |
| 2026-04-27 21:31 | 8.93743 | 38.67162 | 9991 ft | 157 kts | 62° |
| 2026-04-27 21:31 | 8.94275 | 38.68111 | 9832 ft | 156 kts | 62° |
| 2026-04-27 21:32 | 8.94726 | 38.69117 | 9798 ft | 157 kts | 71° |
| 2026-04-27 21:32 | 8.95047 | 38.70171 | 9536 ft | 158 kts | 73° |
| 2026-04-27 21:32 | 8.95354 | 38.71220 | 9408 ft | 155 kts | 75° |
| 2026-04-27 21:32 | 8.95656 | 38.72272 | 9407 ft | 155 kts | 74° |
| 2026-04-27 21:33 | 8.95955 | 38.73314 | 9360 ft | 152 kts | 74° |
| 2026-04-27 21:33 | 8.96248 | 38.74332 | 9045 ft | 149 kts | 74° |
| 2026-04-27 21:33 | 8.96547 | 38.75359 | 8640 ft | 159 kts | 74° |
| 2026-04-27 21:33 | 8.96875 | 38.76504 | 8329 ft | 183 kts | 74° |
| 2026-04-27 21:34 | 8.97238 | 38.77811 | 8463 ft | 204 kts | 76° |
| 2026-04-27 21:34 | 8.97631 | 38.79249 | 8918 ft | 223 kts | 75° |
| 2026-04-27 21:34 | 8.98079 | 38.80837 | 9236 ft | 242 kts | 75° |
| 2026-04-27 21:34 | 8.98522 | 38.82445 | 9420 ft | 238 kts | 81° |
| 2026-04-27 21:35 | 8.98406 | 38.84068 | 9391 ft | 233 kts | 112° |
| 2026-04-27 21:35 | 8.97424 | 38.85367 | 9389 ft | 234 kts | 144° |
| 2026-04-27 21:35 | 8.95909 | 38.85929 | 9388 ft | 238 kts | 176° |
| 2026-04-27 21:35 | 8.94273 | 38.85596 | 9400 ft | 238 kts | 208° |
| 2026-04-27 21:36 | 8.93080 | 38.84531 | 9289 ft | 228 kts | 238° |
| 2026-04-27 21:36 | 8.92441 | 38.83089 | 9047 ft | 220 kts | 253° |
| 2026-04-27 21:36 | 8.92061 | 38.81598 | 8674 ft | 220 kts | 258° |
| 2026-04-27 21:36 | 8.91769 | 38.80134 | 8497 ft | 205 kts | 264° |
| 2026-04-27 21:37 | 8.91952 | 38.78764 | 8284 ft | 190 kts | 297° |
| 2026-04-27 21:37 | 8.92816 | 38.77914 | 8181 ft | 162 kts | 333° |
| 2026-04-27 21:37 | 8.93693 | 38.77328 | 8003 ft | 149 kts | 324° |
| 2026-04-27 21:37 | 8.94623 | 38.76839 | 7773 ft | 154 kts | 336° |
| 2026-04-27 21:38 | 8.95419 | 38.76157 | 7985 ft | 153 kts | 300° |
| 2026-04-27 21:38 | 8.95818 | 38.75141 | 8059 ft | 156 kts | 285° |
| 2026-04-27 21:38 | 8.96360 | 38.74235 | 7957 ft | 153 kts | 329° |
| 2026-04-27 21:38 | 8.97365 | 38.74132 | 7913 ft | 147 kts | 31° |
| 2026-04-27 21:39 | 8.97815 | 38.74949 | 8094 ft | 141 kts | 100° |
| 2026-04-27 21:39 | 8.97516 | 38.75934 | 7968 ft | 150 kts | 110° |
| 2026-04-27 21:39 | 8.97198 | 38.76937 | 7833 ft | 150 kts | 99° |
| 2026-04-27 21:39 | 8.97298 | 38.77980 | 7723 ft | 151 kts | 73° |
| 2026-04-27 21:40 | 8.97596 | 38.78967 | 7630 ft | 138 kts | 72° |
| 2026-04-27 21:40 | 8.97833 | 38.79749 | 7634 ft | 92 kts | 70° |
| 2026-04-27 21:40 | 8.97943 | 38.80133 | 7631 ft | 22 kts | 70° |
| 2026-04-27 21:40 | 8.97955 | 38.80157 | 7630 ft | 1 kts | 51° |
| 2026-04-27 21:41 | 8.97965 | 38.80166 | 7630 ft | 2 kts | 38° |
| 2026-04-27 21:41 | 8.98003 | 38.80174 | 7631 ft | 8 kts | 346° |
| 2026-04-27 21:41 | 8.98081 | 38.80149 | 7630 ft | 12 kts | 346° |
| 2026-04-27 21:41 | 8.98162 | 38.80125 | 7629 ft | 11 kts | 342° |
| 2026-04-27 21:42 | 8.98236 | 38.80100 | 7627 ft | 11 kts | 340° |
| 2026-04-27 21:42 | 8.98311 | 38.80074 | 7625 ft | 10 kts | 341° |
| 2026-04-27 21:42 | 8.98335 | 38.80066 | 7624 ft | 0 kts | 347° |
| 2026-04-27 21:42 | 8.98343 | 38.80064 | 7624 ft | 1 kts | 346° |
| 2026-04-27 21:43 | 8.98350 | 38.80062 | 7624 ft | 0 kts | 345° |